sensor_id;sensor_type;location;lat;lon;timestamp;temperature;humidity
84330;SHT31;74510;42.676;23.432;2024-02-14T00:01:22;5.69;78.23
84330;SHT31;74510;42.676;23.432;2024-02-14T00:03:48;5.61;78.69
84330;SHT31;74510;42.676;23.432;2024-02-14T00:06:13;5.69;78.23
84330;SHT31;74510;42.676;23.432;2024-02-14T00:08:39;5.66;78.19
84330;SHT31;74510;42.676;23.432;2024-02-14T00:11:04;5.68;78.50
84330;SHT31;74510;42.676;23.432;2024-02-14T00:13:29;5.68;78.04
84330;SHT31;74510;42.676;23.432;2024-02-14T00:15:57;5.65;78.49
84330;SHT31;74510;42.676;23.432;2024-02-14T00:18:22;5.66;78.40
84330;SHT31;74510;42.676;23.432;2024-02-14T00:20:48;5.62;78.40
84330;SHT31;74510;42.676;23.432;2024-02-14T00:23:13;5.63;78.01
84330;SHT31;74510;42.676;23.432;2024-02-14T00:25:39;5.65;78.49
84330;SHT31;74510;42.676;23.432;2024-02-14T00:28:05;5.61;78.45
84330;SHT31;74510;42.676;23.432;2024-02-14T00:30:31;5.55;78.48
84330;SHT31;74510;42.676;23.432;2024-02-14T00:32:56;5.66;78.17
84330;SHT31;74510;42.676;23.432;2024-02-14T00:35:22;5.63;78.02
84330;SHT31;74510;42.676;23.432;2024-02-14T00:37:48;5.65;77.76
84330;SHT31;74510;42.676;23.432;2024-02-14T00:40:13;5.72;77.85
84330;SHT31;74510;42.676;23.432;2024-02-14T00:42:39;5.65;78.14
84330;SHT31;74510;42.676;23.432;2024-02-14T00:45:06;5.69;77.79
84330;SHT31;74510;42.676;23.432;2024-02-14T00:47:34;5.66;78.23
84330;SHT31;74510;42.676;23.432;2024-02-14T00:50:00;5.65;78.51
84330;SHT31;74510;42.676;23.432;2024-02-14T00:52:25;5.66;78.12
84330;SHT31;74510;42.676;23.432;2024-02-14T00:54:50;5.70;78.31
84330;SHT31;74510;42.676;23.432;2024-02-14T00:57:16;5.72;78.12
84330;SHT31;74510;42.676;23.432;2024-02-14T00:59:43;5.68;78.10
84330;SHT31;74510;42.676;23.432;2024-02-14T01:02:08;5.70;77.79
84330;SHT31;74510;42.676;23.432;2024-02-14T01:04:34;5.68;78.11
84330;SHT31;74510;42.676;23.432;2024-02-14T01:07:02;5.68;77.89
84330;SHT31;74510;42.676;23.432;2024-02-14T01:09:27;5.70;77.93
84330;SHT31;74510;42.676;23.432;2024-02-14T01:11:53;5.72;78.01
84330;SHT31;74510;42.676;23.432;2024-02-14T01:14:18;5.62;78.51
84330;SHT31;74510;42.676;23.432;2024-02-14T01:16:47;5.59;78.36
84330;SHT31;74510;42.676;23.432;2024-02-14T01:19:13;5.65;77.84
84330;SHT31;74510;42.676;23.432;2024-02-14T01:21:39;5.72;77.66
84330;SHT31;74510;42.676;23.432;2024-02-14T01:24:04;5.73;77.59
84330;SHT31;74510;42.676;23.432;2024-02-14T01:26:34;5.68;77.77
84330;SHT31;74510;42.676;23.432;2024-02-14T01:28:59;5.63;77.96
84330;SHT31;74510;42.676;23.432;2024-02-14T01:31:28;5.72;77.57
84330;SHT31;74510;42.676;23.432;2024-02-14T01:33:55;5.70;77.52
84330;SHT31;74510;42.676;23.432;2024-02-14T01:36:20;5.69;77.39
84330;SHT31;74510;42.676;23.432;2024-02-14T01:38:46;5.70;78.01
84330;SHT31;74510;42.676;23.432;2024-02-14T01:41:11;5.68;77.04
84330;SHT31;74510;42.676;23.432;2024-02-14T01:43:38;5.76;76.60
84330;SHT31;74510;42.676;23.432;2024-02-14T01:46:07;5.76;77.01
84330;SHT31;74510;42.676;23.432;2024-02-14T01:48:36;5.68;77.51
84330;SHT31;74510;42.676;23.432;2024-02-14T01:51:03;5.72;77.03
84330;SHT31;74510;42.676;23.432;2024-02-14T01:53:29;5.70;77.39
84330;SHT31;74510;42.676;23.432;2024-02-14T01:55:59;5.69;77.31
84330;SHT31;74510;42.676;23.432;2024-02-14T01:58:25;5.72;77.42
84330;SHT31;74510;42.676;23.432;2024-02-14T02:00:51;5.78;76.66
84330;SHT31;74510;42.676;23.432;2024-02-14T02:03:24;5.73;77.22
84330;SHT31;74510;42.676;23.432;2024-02-14T02:05:51;5.68;77.25
84330;SHT31;74510;42.676;23.432;2024-02-14T02:08:16;5.72;76.92
84330;SHT31;74510;42.676;23.432;2024-02-14T02:10:42;5.75;76.56
84330;SHT31;74510;42.676;23.432;2024-02-14T02:13:08;5.69;76.88
84330;SHT31;74510;42.676;23.432;2024-02-14T02:15:34;5.76;76.96
84330;SHT31;74510;42.676;23.432;2024-02-14T02:18:00;5.75;76.92
84330;SHT31;74510;42.676;23.432;2024-02-14T02:20:27;5.69;76.93
84330;SHT31;74510;42.676;23.432;2024-02-14T02:22:53;5.72;76.69
84330;SHT31;74510;42.676;23.432;2024-02-14T02:25:18;5.65;76.64
84330;SHT31;74510;42.676;23.432;2024-02-14T02:27:48;5.68;76.35
84330;SHT31;74510;42.676;23.432;2024-02-14T02:30:14;5.72;76.60
84330;SHT31;74510;42.676;23.432;2024-02-14T02:32:39;5.66;76.57
84330;SHT31;74510;42.676;23.432;2024-02-14T02:35:06;5.68;76.52
84330;SHT31;74510;42.676;23.432;2024-02-14T02:37:32;5.68;76.40
84330;SHT31;74510;42.676;23.432;2024-02-14T02:39:58;5.68;76.93
84330;SHT31;74510;42.676;23.432;2024-02-14T02:42:24;5.68;76.40
84330;SHT31;74510;42.676;23.432;2024-02-14T02:44:50;5.62;76.54
84330;SHT31;74510;42.676;23.432;2024-02-14T02:47:16;5.63;76.34
84330;SHT31;74510;42.676;23.432;2024-02-14T02:49:45;5.66;76.29
84330;SHT31;74510;42.676;23.432;2024-02-14T02:52:11;5.68;75.71
84330;SHT31;74510;42.676;23.432;2024-02-14T02:54:37;5.62;76.13
84330;SHT31;74510;42.676;23.432;2024-02-14T02:57:06;5.55;76.71
84330;SHT31;74510;42.676;23.432;2024-02-14T02:59:32;5.65;76.10
84330;SHT31;74510;42.676;23.432;2024-02-14T03:01:57;5.65;76.54
84330;SHT31;74510;42.676;23.432;2024-02-14T03:04:24;5.65;76.20
84330;SHT31;74510;42.676;23.432;2024-02-14T03:06:49;5.59;76.32
84330;SHT31;74510;42.676;23.432;2024-02-14T03:09:15;5.56;76.69
84330;SHT31;74510;42.676;23.432;2024-02-14T03:11:45;5.58;76.12
84330;SHT31;74510;42.676;23.432;2024-02-14T03:14:11;5.58;76.11
84330;SHT31;74510;42.676;23.432;2024-02-14T03:16:36;5.58;76.63
84330;SHT31;74510;42.676;23.432;2024-02-14T03:19:02;5.63;75.86
84330;SHT31;74510;42.676;23.432;2024-02-14T03:21:30;5.54;76.53
84330;SHT31;74510;42.676;23.432;2024-02-14T03:23:58;5.55;76.40
84330;SHT31;74510;42.676;23.432;2024-02-14T03:26:23;5.52;76.82
84330;SHT31;74510;42.676;23.432;2024-02-14T03:28:49;5.49;76.71
84330;SHT31;74510;42.676;23.432;2024-02-14T03:31:14;5.51;76.37
84330;SHT31;74510;42.676;23.432;2024-02-14T03:33:41;5.51;76.60
84330;SHT31;74510;42.676;23.432;2024-02-14T03:36:06;5.58;76.18
84330;SHT31;74510;42.676;23.432;2024-02-14T03:38:32;5.58;76.29
84330;SHT31;74510;42.676;23.432;2024-02-14T03:40:57;5.47;76.94
84330;SHT31;74510;42.676;23.432;2024-02-14T03:43:23;5.56;75.97
84330;SHT31;74510;42.676;23.432;2024-02-14T03:45:53;5.48;76.48
84330;SHT31;74510;42.676;23.432;2024-02-14T03:48:19;5.59;76.48
84330;SHT31;74510;42.676;23.432;2024-02-14T03:50:45;5.49;76.45
84330;SHT31;74510;42.676;23.432;2024-02-14T03:53:10;5.54;75.87
84330;SHT31;74510;42.676;23.432;2024-02-14T03:55:37;5.55;75.93
84330;SHT31;74510;42.676;23.432;2024-02-14T03:58:02;5.51;76.09
84330;SHT31;74510;42.676;23.432;2024-02-14T04:00:29;5.58;75.55
84330;SHT31;74510;42.676;23.432;2024-02-14T04:02:55;5.55;75.75
84330;SHT31;74510;42.676;23.432;2024-02-14T04:05:24;5.52;75.85
84330;SHT31;74510;42.676;23.432;2024-02-14T04:07:50;5.48;76.29
84330;SHT31;74510;42.676;23.432;2024-02-14T04:10:17;5.48;75.86
84330;SHT31;74510;42.676;23.432;2024-02-14T04:12:43;5.51;75.91
84330;SHT31;74510;42.676;23.432;2024-02-14T04:15:08;5.45;75.82
84330;SHT31;74510;42.676;23.432;2024-02-14T04:17:34;5.47;75.94
84330;SHT31;74510;42.676;23.432;2024-02-14T04:19:59;5.47;75.61
84330;SHT31;74510;42.676;23.432;2024-02-14T04:22:25;5.47;75.72
84330;SHT31;74510;42.676;23.432;2024-02-14T04:24:50;5.44;75.78
84330;SHT31;74510;42.676;23.432;2024-02-14T04:27:16;5.49;75.49
84330;SHT31;74510;42.676;23.432;2024-02-14T04:29:45;5.44;75.59
84330;SHT31;74510;42.676;23.432;2024-02-14T04:32:11;5.41;76.18
84330;SHT31;74510;42.676;23.432;2024-02-14T04:34:38;5.42;76.10
84330;SHT31;74510;42.676;23.432;2024-02-14T04:37:05;5.42;76.43
84330;SHT31;74510;42.676;23.432;2024-02-14T04:39:36;5.44;75.95
84330;SHT31;74510;42.676;23.432;2024-02-14T04:42:01;5.37;76.21
84330;SHT31;74510;42.676;23.432;2024-02-14T04:44:28;5.24;77.15
84330;SHT31;74510;42.676;23.432;2024-02-14T04:46:53;5.34;76.56
84330;SHT31;74510;42.676;23.432;2024-02-14T04:49:19;5.30;76.40
84330;SHT31;74510;42.676;23.432;2024-02-14T04:51:45;5.28;76.03
84330;SHT31;74510;42.676;23.432;2024-02-14T04:54:10;5.30;76.31
84330;SHT31;74510;42.676;23.432;2024-02-14T04:56:36;5.27;76.54
84330;SHT31;74510;42.676;23.432;2024-02-14T04:59:01;5.24;76.57
84330;SHT31;74510;42.676;23.432;2024-02-14T05:01:27;5.27;76.47
84330;SHT31;74510;42.676;23.432;2024-02-14T05:03:52;5.21;77.01
84330;SHT31;74510;42.676;23.432;2024-02-14T05:06:17;5.21;76.93
84330;SHT31;74510;42.676;23.432;2024-02-14T05:08:43;5.20;76.89
84330;SHT31;74510;42.676;23.432;2024-02-14T05:11:08;5.21;77.42
84330;SHT31;74510;42.676;23.432;2024-02-14T05:13:34;5.16;77.16
84330;SHT31;74510;42.676;23.432;2024-02-14T05:16:03;5.17;77.14
84330;SHT31;74510;42.676;23.432;2024-02-14T05:18:28;5.20;76.73
84330;SHT31;74510;42.676;23.432;2024-02-14T05:20:54;5.20;76.88
84330;SHT31;74510;42.676;23.432;2024-02-14T05:23:19;5.24;77.28
84330;SHT31;74510;42.676;23.432;2024-02-14T05:25:44;5.16;77.87
84330;SHT31;74510;42.676;23.432;2024-02-14T05:28:10;5.19;77.33
84330;SHT31;74510;42.676;23.432;2024-02-14T05:30:42;5.23;76.89
84330;SHT31;74510;42.676;23.432;2024-02-14T05:33:08;5.23;76.61
84330;SHT31;74510;42.676;23.432;2024-02-14T05:35:33;5.23;77.04
84330;SHT31;74510;42.676;23.432;2024-02-14T05:37:59;5.16;77.39
84330;SHT31;74510;42.676;23.432;2024-02-14T05:40:24;5.21;77.16
84330;SHT31;74510;42.676;23.432;2024-02-14T05:42:50;5.19;77.08
84330;SHT31;74510;42.676;23.432;2024-02-14T05:45:16;5.24;76.43
84330;SHT31;74510;42.676;23.432;2024-02-14T05:47:43;5.21;76.01
84330;SHT31;74510;42.676;23.432;2024-02-14T05:50:08;5.21;76.55
84330;SHT31;74510;42.676;23.432;2024-02-14T05:52:34;5.21;76.77
84330;SHT31;74510;42.676;23.432;2024-02-14T05:55:00;5.16;76.73
84330;SHT31;74510;42.676;23.432;2024-02-14T05:57:26;5.23;76.41
84330;SHT31;74510;42.676;23.432;2024-02-14T05:59:52;5.27;76.08
84330;SHT31;74510;42.676;23.432;2024-02-14T06:02:17;5.21;75.66
84330;SHT31;74510;42.676;23.432;2024-02-14T06:04:42;5.16;75.90
84330;SHT31;74510;42.676;23.432;2024-02-14T06:07:08;5.13;76.43
84330;SHT31;74510;42.676;23.432;2024-02-14T06:09:36;5.17;76.62
84330;SHT31;74510;42.676;23.432;2024-02-14T06:12:01;5.10;76.55
84330;SHT31;74510;42.676;23.432;2024-02-14T06:14:27;5.13;76.09
84330;SHT31;74510;42.676;23.432;2024-02-14T06:16:53;5.20;76.17
84330;SHT31;74510;42.676;23.432;2024-02-14T06:19:19;5.17;75.85
84330;SHT31;74510;42.676;23.432;2024-02-14T06:21:44;5.14;76.38
84330;SHT31;74510;42.676;23.432;2024-02-14T06:24:10;5.16;75.77
84330;SHT31;74510;42.676;23.432;2024-02-14T06:26:38;5.11;75.84
84330;SHT31;74510;42.676;23.432;2024-02-14T06:29:03;5.17;75.81
84330;SHT31;74510;42.676;23.432;2024-02-14T06:31:29;5.17;75.40
84330;SHT31;74510;42.676;23.432;2024-02-14T06:33:54;5.16;75.37
84330;SHT31;74510;42.676;23.432;2024-02-14T06:36:20;5.14;75.24
84330;SHT31;74510;42.676;23.432;2024-02-14T06:38:45;5.17;74.58
84330;SHT31;74510;42.676;23.432;2024-02-14T06:41:12;5.19;74.70
84330;SHT31;74510;42.676;23.432;2024-02-14T06:43:37;5.14;74.90
84330;SHT31;74510;42.676;23.432;2024-02-14T06:46:05;5.24;74.66
84330;SHT31;74510;42.676;23.432;2024-02-14T06:48:31;5.21;75.01
84330;SHT31;74510;42.676;23.432;2024-02-14T06:50:56;5.20;75.18
84330;SHT31;74510;42.676;23.432;2024-02-14T06:53:22;5.21;74.79
84330;SHT31;74510;42.676;23.432;2024-02-14T06:55:47;5.19;74.66
84330;SHT31;74510;42.676;23.432;2024-02-14T06:58:13;5.17;74.79
84330;SHT31;74510;42.676;23.432;2024-02-14T07:00:39;5.21;74.47
84330;SHT31;74510;42.676;23.432;2024-02-14T07:03:04;5.19;74.11
84330;SHT31;74510;42.676;23.432;2024-02-14T07:05:30;5.21;74.36
84330;SHT31;74510;42.676;23.432;2024-02-14T07:07:56;5.21;73.65
84330;SHT31;74510;42.676;23.432;2024-02-14T07:10:22;5.19;73.33
84330;SHT31;74510;42.676;23.432;2024-02-14T07:12:48;5.13;74.70
84330;SHT31;74510;42.676;23.432;2024-02-14T07:15:13;5.24;73.70
84330;SHT31;74510;42.676;23.432;2024-02-14T07:17:39;5.20;73.86
84330;SHT31;74510;42.676;23.432;2024-02-14T07:20:05;5.17;73.38
84330;SHT31;74510;42.676;23.432;2024-02-14T07:22:34;5.24;73.48
84330;SHT31;74510;42.676;23.432;2024-02-14T07:24:59;5.21;73.28
84330;SHT31;74510;42.676;23.432;2024-02-14T07:27:25;5.24;72.57
84330;SHT31;74510;42.676;23.432;2024-02-14T07:29:50;5.19;73.28
84330;SHT31;74510;42.676;23.432;2024-02-14T07:32:17;5.19;72.82
84330;SHT31;74510;42.676;23.432;2024-02-14T07:34:42;5.19;72.98
84330;SHT31;74510;42.676;23.432;2024-02-14T07:37:08;5.16;73.36
84330;SHT31;74510;42.676;23.432;2024-02-14T07:39:34;5.23;72.99
84330;SHT31;74510;42.676;23.432;2024-02-14T07:42:02;5.21;72.60
84330;SHT31;74510;42.676;23.432;2024-02-14T07:44:28;5.13;73.25
84330;SHT31;74510;42.676;23.432;2024-02-14T07:46:53;5.14;72.69
84330;SHT31;74510;42.676;23.432;2024-02-14T07:49:19;5.11;72.54
84330;SHT31;74510;42.676;23.432;2024-02-14T07:51:45;5.09;72.85
84330;SHT31;74510;42.676;23.432;2024-02-14T07:54:11;5.14;72.38
84330;SHT31;74510;42.676;23.432;2024-02-14T07:56:36;5.17;72.50
84330;SHT31;74510;42.676;23.432;2024-02-14T07:59:02;5.16;72.99
84330;SHT31;74510;42.676;23.432;2024-02-14T08:01:30;5.11;72.85
84330;SHT31;74510;42.676;23.432;2024-02-14T08:03:57;5.11;72.63
84330;SHT31;74510;42.676;23.432;2024-02-14T08:06:23;5.11;72.84
84330;SHT31;74510;42.676;23.432;2024-02-14T08:08:48;5.23;73.39
84330;SHT31;74510;42.676;23.432;2024-02-14T08:11:17;5.19;72.79
84330;SHT31;74510;42.676;23.432;2024-02-14T08:13:43;5.14;73.35
84330;SHT31;74510;42.676;23.432;2024-02-14T08:16:08;5.19;73.27
84330;SHT31;74510;42.676;23.432;2024-02-14T08:18:33;5.09;73.68
84330;SHT31;74510;42.676;23.432;2024-02-14T08:21:00;5.10;72.09
84330;SHT31;74510;42.676;23.432;2024-02-14T08:23:26;5.06;72.58
84330;SHT31;74510;42.676;23.432;2024-02-14T08:25:51;5.01;73.55
84330;SHT31;74510;42.676;23.432;2024-02-14T08:28:20;4.99;73.24
84330;SHT31;74510;42.676;23.432;2024-02-14T08:30:46;4.99;73.08
84330;SHT31;74510;42.676;23.432;2024-02-14T08:33:12;5.07;74.11
84330;SHT31;74510;42.676;23.432;2024-02-14T08:35:38;5.11;72.65
84330;SHT31;74510;42.676;23.432;2024-02-14T08:38:04;5.06;72.12
84330;SHT31;74510;42.676;23.432;2024-02-14T08:40:29;5.10;72.47
84330;SHT31;74510;42.676;23.432;2024-02-14T08:42:54;5.07;72.67
84330;SHT31;74510;42.676;23.432;2024-02-14T08:45:20;5.06;72.93
84330;SHT31;74510;42.676;23.432;2024-02-14T08:47:45;5.04;72.42
84330;SHT31;74510;42.676;23.432;2024-02-14T08:50:11;5.07;71.31
84330;SHT31;74510;42.676;23.432;2024-02-14T08:52:36;5.06;71.13
84330;SHT31;74510;42.676;23.432;2024-02-14T08:55:06;5.11;72.08
84330;SHT31;74510;42.676;23.432;2024-02-14T08:57:34;5.16;72.44
84330;SHT31;74510;42.676;23.432;2024-02-14T09:00:00;5.21;71.88
84330;SHT31;74510;42.676;23.432;2024-02-14T09:02:27;5.21;71.88
84330;SHT31;74510;42.676;23.432;2024-02-14T09:04:53;5.21;71.61
84330;SHT31;74510;42.676;23.432;2024-02-14T09:07:18;5.19;71.40
84330;SHT31;74510;42.676;23.432;2024-02-14T09:09:44;5.11;70.98
84330;SHT31;74510;42.676;23.432;2024-02-14T09:12:11;5.13;71.54
84330;SHT31;74510;42.676;23.432;2024-02-14T09:14:36;5.16;71.98
84330;SHT31;74510;42.676;23.432;2024-02-14T09:17:02;5.17;72.13
84330;SHT31;74510;42.676;23.432;2024-02-14T09:19:27;5.30;72.05
84330;SHT31;74510;42.676;23.432;2024-02-14T09:21:53;5.34;71.72
84330;SHT31;74510;42.676;23.432;2024-02-14T09:24:18;5.40;70.85
84330;SHT31;74510;42.676;23.432;2024-02-14T09:26:43;5.26;70.42
84330;SHT31;74510;42.676;23.432;2024-02-14T09:29:09;5.17;71.60
84330;SHT31;74510;42.676;23.432;2024-02-14T09:31:37;5.26;71.75
84330;SHT31;74510;42.676;23.432;2024-02-14T09:34:03;5.21;71.65
84330;SHT31;74510;42.676;23.432;2024-02-14T09:36:28;5.21;71.09
84330;SHT31;74510;42.676;23.432;2024-02-14T09:38:54;5.16;71.36
84330;SHT31;74510;42.676;23.432;2024-02-14T09:41:47;5.14;72.52
84330;SHT31;74510;42.676;23.432;2024-02-14T09:44:16;5.09;72.56
84330;SHT31;74510;42.676;23.432;2024-02-14T09:46:42;5.03;72.32
84330;SHT31;74510;42.676;23.432;2024-02-14T09:49:08;5.07;71.68
84330;SHT31;74510;42.676;23.432;2024-02-14T09:51:35;5.01;71.74
84330;SHT31;74510;42.676;23.432;2024-02-14T09:54:01;5.07;71.94
84330;SHT31;74510;42.676;23.432;2024-02-14T09:56:27;5.10;71.63
84330;SHT31;74510;42.676;23.432;2024-02-14T09:58:53;5.06;72.44
84330;SHT31;74510;42.676;23.432;2024-02-14T10:01:25;5.19;71.91
84330;SHT31;74510;42.676;23.432;2024-02-14T10:03:52;5.23;71.61
84330;SHT31;74510;42.676;23.432;2024-02-14T10:06:19;5.23;71.29
84330;SHT31;74510;42.676;23.432;2024-02-14T10:08:47;5.20;70.89
84330;SHT31;74510;42.676;23.432;2024-02-14T10:11:14;5.20;70.99
84330;SHT31;74510;42.676;23.432;2024-02-14T10:13:41;5.17;70.95
84330;SHT31;74510;42.676;23.432;2024-02-14T10:16:07;5.11;70.80
84330;SHT31;74510;42.676;23.432;2024-02-14T10:18:35;5.16;70.48
84330;SHT31;74510;42.676;23.432;2024-02-14T10:21:00;5.09;70.70
84330;SHT31;74510;42.676;23.432;2024-02-14T10:23:27;5.11;71.05
84330;SHT31;74510;42.676;23.432;2024-02-14T10:25:53;5.11;71.52
84330;SHT31;74510;42.676;23.432;2024-02-14T10:28:21;5.21;70.38
84330;SHT31;74510;42.676;23.432;2024-02-14T10:30:46;5.23;70.54
84330;SHT31;74510;42.676;23.432;2024-02-14T10:33:12;5.23;70.11
84330;SHT31;74510;42.676;23.432;2024-02-14T10:35:38;5.23;69.32
84330;SHT31;74510;42.676;23.432;2024-02-14T10:38:08;5.26;69.92
84330;SHT31;74510;42.676;23.432;2024-02-14T10:40:35;5.26;69.53
84330;SHT31;74510;42.676;23.432;2024-02-14T10:43:01;5.28;69.41
84330;SHT31;74510;42.676;23.432;2024-02-14T10:45:27;5.26;69.74
84330;SHT31;74510;42.676;23.432;2024-02-14T10:47:53;5.27;69.54
84330;SHT31;74510;42.676;23.432;2024-02-14T10:50:24;5.34;69.67
84330;SHT31;74510;42.676;23.432;2024-02-14T10:52:53;5.35;69.15
84330;SHT31;74510;42.676;23.432;2024-02-14T10:55:24;5.41;69.18
84330;SHT31;74510;42.676;23.432;2024-02-14T10:57:53;5.44;68.81
84330;SHT31;74510;42.676;23.432;2024-02-14T11:00:20;5.45;68.71
84330;SHT31;74510;42.676;23.432;2024-02-14T11:02:46;5.51;68.68
84330;SHT31;74510;42.676;23.432;2024-02-14T11:05:16;5.54;68.89
84330;SHT31;74510;42.676;23.432;2024-02-14T11:07:45;5.51;68.70
84330;SHT31;74510;42.676;23.432;2024-02-14T11:10:17;5.42;68.98
84330;SHT31;74510;42.676;23.432;2024-02-14T11:12:43;5.44;68.33
84330;SHT31;74510;42.676;23.432;2024-02-14T11:15:21;5.45;68.74
84330;SHT31;74510;42.676;23.432;2024-02-14T11:17:48;5.51;68.53
84330;SHT31;74510;42.676;23.432;2024-02-14T11:20:21;5.41;69.22
84330;SHT31;74510;42.676;23.432;2024-02-14T11:22:54;5.45;68.09
84330;SHT31;74510;42.676;23.432;2024-02-14T11:25:28;5.37;68.61
84330;SHT31;74510;42.676;23.432;2024-02-14T11:27:55;5.45;68.36
84330;SHT31;74510;42.676;23.432;2024-02-14T11:30:35;5.37;68.99
84330;SHT31;74510;42.676;23.432;2024-02-14T11:33:13;5.44;68.39
84330;SHT31;74510;42.676;23.432;2024-02-14T11:35:40;5.42;69.18
84330;SHT31;74510;42.676;23.432;2024-02-14T11:38:06;5.48;68.73
84330;SHT31;74510;42.676;23.432;2024-02-14T11:40:32;5.42;68.21
84330;SHT31;74510;42.676;23.432;2024-02-14T11:42:58;5.45;68.90
84330;SHT31;74510;42.676;23.432;2024-02-14T11:45:23;5.47;68.41
84330;SHT31;74510;42.676;23.432;2024-02-14T11:47:49;5.49;68.81
84330;SHT31;74510;42.676;23.432;2024-02-14T11:50:17;5.44;68.64
84330;SHT31;74510;42.676;23.432;2024-02-14T11:52:43;5.47;68.35
84330;SHT31;74510;42.676;23.432;2024-02-14T11:55:09;5.45;69.18
84330;SHT31;74510;42.676;23.432;2024-02-14T11:57:35;5.58;68.42
84330;SHT31;74510;42.676;23.432;2024-02-14T12:00:01;5.51;68.53
84330;SHT31;74510;42.676;23.432;2024-02-14T12:02:27;5.52;67.88
84330;SHT31;74510;42.676;23.432;2024-02-14T12:04:54;5.63;67.95
84330;SHT31;74510;42.676;23.432;2024-02-14T12:07:21;5.63;68.30
84330;SHT31;74510;42.676;23.432;2024-02-14T12:09:47;5.61;67.08
84330;SHT31;74510;42.676;23.432;2024-02-14T12:12:15;5.62;67.25
84330;SHT31;74510;42.676;23.432;2024-02-14T12:14:43;5.62;67.69
84330;SHT31;74510;42.676;23.432;2024-02-14T12:17:09;5.62;67.79
84330;SHT31;74510;42.676;23.432;2024-02-14T12:19:35;5.65;67.37
84330;SHT31;74510;42.676;23.432;2024-02-14T12:22:09;5.70;67.68
84330;SHT31;74510;42.676;23.432;2024-02-14T12:24:37;5.72;66.96
84330;SHT31;74510;42.676;23.432;2024-02-14T12:27:04;5.80;66.63
84330;SHT31;74510;42.676;23.432;2024-02-14T12:29:30;5.78;66.20
84330;SHT31;74510;42.676;23.432;2024-02-14T12:32:05;5.86;66.14
84330;SHT31;74510;42.676;23.432;2024-02-14T12:34:32;5.88;66.55
84330;SHT31;74510;42.676;23.432;2024-02-14T12:36:57;5.85;66.55
84330;SHT31;74510;42.676;23.432;2024-02-14T12:39:23;5.92;66.79
84330;SHT31;74510;42.676;23.432;2024-02-14T12:41:51;5.96;65.73
84330;SHT31;74510;42.676;23.432;2024-02-14T12:44:17;5.98;66.01
84330;SHT31;74510;42.676;23.432;2024-02-14T12:46:43;5.98;65.38
84330;SHT31;74510;42.676;23.432;2024-02-14T12:49:08;5.99;65.15
84330;SHT31;74510;42.676;23.432;2024-02-14T12:51:34;5.95;66.26
84330;SHT31;74510;42.676;23.432;2024-02-14T12:54:01;5.96;66.35
84330;SHT31;74510;42.676;23.432;2024-02-14T12:56:27;6.07;65.27
84330;SHT31;74510;42.676;23.432;2024-02-14T12:58:52;6.06;65.51
84330;SHT31;74510;42.676;23.432;2024-02-14T13:01:18;6.03;64.52
84330;SHT31;74510;42.676;23.432;2024-02-14T13:03:43;6.00;65.73
84330;SHT31;74510;42.676;23.432;2024-02-14T13:06:10;6.11;65.78
84330;SHT31;74510;42.676;23.432;2024-02-14T13:08:36;6.14;65.06
84330;SHT31;74510;42.676;23.432;2024-02-14T13:11:04;6.05;65.42
84330;SHT31;74510;42.676;23.432;2024-02-14T13:13:29;6.16;65.70
84330;SHT31;74510;42.676;23.432;2024-02-14T13:15:55;6.17;64.62
84330;SHT31;74510;42.676;23.432;2024-02-14T13:18:20;6.24;64.92
84330;SHT31;74510;42.676;23.432;2024-02-14T13:20:46;6.21;65.17
84330;SHT31;74510;42.676;23.432;2024-02-14T13:23:11;6.28;64.44
84330;SHT31;74510;42.676;23.432;2024-02-14T13:25:37;6.24;64.69
84330;SHT31;74510;42.676;23.432;2024-02-14T13:28:04;6.23;64.29
84330;SHT31;74510;42.676;23.432;2024-02-14T13:30:30;6.30;64.08
84330;SHT31;74510;42.676;23.432;2024-02-14T13:32:56;6.26;64.64
84330;SHT31;74510;42.676;23.432;2024-02-14T13:35:21;6.27;63.98
84330;SHT31;74510;42.676;23.432;2024-02-14T13:37:47;6.33;63.85
84330;SHT31;74510;42.676;23.432;2024-02-14T13:40:12;6.27;65.07
84330;SHT31;74510;42.676;23.432;2024-02-14T13:42:38;6.24;65.26
84330;SHT31;74510;42.676;23.432;2024-02-14T13:45:07;6.33;65.63
84330;SHT31;74510;42.676;23.432;2024-02-14T13:47:39;6.31;65.39
84330;SHT31;74510;42.676;23.432;2024-02-14T13:50:07;6.33;64.27
84330;SHT31;74510;42.676;23.432;2024-02-14T13:52:32;6.36;64.40
84330;SHT31;74510;42.676;23.432;2024-02-14T13:54:58;6.36;64.77
84330;SHT31;74510;42.676;23.432;2024-02-14T13:57:23;6.44;63.22
84330;SHT31;74510;42.676;23.432;2024-02-14T13:59:49;6.42;63.37
84330;SHT31;74510;42.676;23.432;2024-02-14T14:02:14;6.40;63.51
84330;SHT31;74510;42.676;23.432;2024-02-14T14:04:39;6.49;62.77
84330;SHT31;74510;42.676;23.432;2024-02-14T14:07:05;6.52;63.17
84330;SHT31;74510;42.676;23.432;2024-02-14T14:09:30;6.52;63.77
84330;SHT31;74510;42.676;23.432;2024-02-14T14:11:58;6.58;62.66
84330;SHT31;74510;42.676;23.432;2024-02-14T14:14:23;6.63;62.32
84330;SHT31;74510;42.676;23.432;2024-02-14T14:16:52;6.52;62.68
84330;SHT31;74510;42.676;23.432;2024-02-14T14:19:18;6.59;62.52
84330;SHT31;74510;42.676;23.432;2024-02-14T14:21:43;6.57;62.53
84330;SHT31;74510;42.676;23.432;2024-02-14T14:24:08;6.51;63.43
84330;SHT31;74510;42.676;23.432;2024-02-14T14:26:34;6.49;63.87
84330;SHT31;74510;42.676;23.432;2024-02-14T14:29:00;6.61;62.86
84330;SHT31;74510;42.676;23.432;2024-02-14T14:31:26;6.63;63.16
84330;SHT31;74510;42.676;23.432;2024-02-14T14:33:52;6.61;62.57
84330;SHT31;74510;42.676;23.432;2024-02-14T14:36:19;6.61;62.89
84330;SHT31;74510;42.676;23.432;2024-02-14T14:38:45;6.63;62.74
84330;SHT31;74510;42.676;23.432;2024-02-14T14:41:10;6.48;63.87
84330;SHT31;74510;42.676;23.432;2024-02-14T14:43:36;6.58;63.89
84330;SHT31;74510;42.676;23.432;2024-02-14T14:46:01;6.52;64.28
84330;SHT31;74510;42.676;23.432;2024-02-14T14:48:26;6.58;64.27
84330;SHT31;74510;42.676;23.432;2024-02-14T14:50:52;6.59;63.41
84330;SHT31;74510;42.676;23.432;2024-02-14T14:53:18;6.48;65.20
84330;SHT31;74510;42.676;23.432;2024-02-14T14:55:55;6.45;65.43
84330;SHT31;74510;42.676;23.432;2024-02-14T14:58:21;6.38;66.07
84330;SHT31;74510;42.676;23.432;2024-02-14T15:00:48;6.48;65.52
84330;SHT31;74510;42.676;23.432;2024-02-14T15:03:14;6.47;65.67
84330;SHT31;74510;42.676;23.432;2024-02-14T15:05:40;6.42;65.61
84330;SHT31;74510;42.676;23.432;2024-02-14T15:08:06;6.42;66.04
84330;SHT31;74510;42.676;23.432;2024-02-14T15:10:35;6.31;66.86
84330;SHT31;74510;42.676;23.432;2024-02-14T15:13:05;6.28;67.86
84330;SHT31;74510;42.676;23.432;2024-02-14T15:15:32;6.30;67.42
84330;SHT31;74510;42.676;23.432;2024-02-14T15:17:58;6.26;68.30
84330;SHT31;74510;42.676;23.432;2024-02-14T15:20:23;6.17;68.28
84330;SHT31;74510;42.676;23.432;2024-02-14T15:22:49;6.20;67.74
84330;SHT31;74510;42.676;23.432;2024-02-14T15:25:14;6.20;67.90